Time;durP1;ratioP1;P1;durP2;ratioP2;P2;SDS_P1;SDS_P2;PMS_P1;PMS_P2;Temp;Humidity;BMP_temperature;BMP_pressure;BME280_temperature;BME280_humidity;BME280_pressure;Samples;Min_cycle;Max_cycle;Signal;HPM_P1;HPM_P2
2022/09/26 00:01:06;;;;;;;3.47;1.50;;;;;;;16.93;62.16;100981.34;6098243;23;20006;-73
2022/09/26 00:03:32;;;;;;;3.88;1.55;;;;;;;16.91;61.74;100980.47;6093708;23;20021;-73
2022/09/26 00:06:05;;;;;;;4.22;1.80;;;;;;;16.85;62.01;100975.28;6099134;23;20401;-73
2022/09/26 00:08:31;;;;;;;5.93;2.00;;;;;;;16.89;62.13;100970.00;6092276;23;20375;-72
2022/09/26 00:11:00;;;;;;;3.58;1.95;;;;;;;16.68;63.35;100970.19;6103304;23;20021;-72
2022/09/26 00:13:27;;;;;;;4.70;1.95;;;;;;;16.95;62.43;100969.03;6099503;23;20597;-72
2022/09/26 00:15:53;;;;;;;5.82;2.05;;;;;;;16.96;62.58;100958.47;6096693;23;20025;-73
2022/09/26 00:18:19;;;;;;;5.75;2.20;;;;;;;16.92;62.66;100958.53;6101358;23;20005;-73
2022/09/26 00:20:44;;;;;;;4.30;2.10;;;;;;;16.89;63.37;100948.91;6093257;23;20410;-73
2022/09/26 00:23:10;;;;;;;6.60;2.25;;;;;;;16.86;63.65;100935.78;6101878;23;20010;-72
2022/09/26 00:25:35;;;;;;;6.07;2.03;;;;;;;16.83;63.50;100938.44;6101421;23;20009;-73
2022/09/26 00:28:01;;;;;;;5.13;2.40;;;;;;;16.53;64.58;100929.06;6098379;23;20524;-73
2022/09/26 00:30:26;;;;;;;5.63;2.20;;;;;;;16.66;64.11;100914.03;6100014;23;20340;-72
2022/09/26 00:32:52;;;;;;;8.00;2.50;;;;;;;16.69;63.84;100906.13;6098498;23;20024;-73
2022/09/26 00:35:17;;;;;;;5.97;2.00;;;;;;;16.68;64.02;100906.16;6074676;23;20069;-72
2022/09/26 00:37:42;;;;;;;7.20;2.20;;;;;;;16.70;63.50;100905.25;6100818;23;20088;-73
2022/09/26 00:40:08;;;;;;;6.15;2.17;;;;;;;16.62;63.69;100896.56;6072706;23;20009;-73
2022/09/26 00:42:33;;;;;;;4.30;2.00;;;;;;;16.70;63.43;100888.59;6093488;23;20005;-73
2022/09/26 00:44:59;;;;;;;4.40;2.00;;;;;;;16.66;63.23;100887.72;6096681;23;20018;-72
2022/09/26 00:47:59;;;;;;;5.95;2.17;;;;;;;16.71;63.26;100879.78;6100164;23;20052;-72
2022/09/26 00:50:35;;;;;;;6.97;1.98;;;;;;;16.73;62.96;100870.09;6066200;23;20461;-72
2022/09/26 00:53:10;;;;;;;5.43;2.17;;;;;;;16.68;62.67;100861.38;6103328;23;20104;-73
2022/09/26 00:55:40;;;;;;;5.40;1.75;;;;;;;16.58;63.17;100852.72;6097583;23;20009;-73
2022/09/26 00:58:11;;;;;;;3.85;1.90;;;;;;;16.65;62.68;100848.28;6093641;23;20018;-73
2022/09/26 01:00:39;;;;;;;6.03;2.20;;;;;;;16.67;62.11;100844.72;6095366;23;20841;-73
2022/09/26 01:03:05;;;;;;;3.90;1.80;;;;;;;16.49;62.40;100835.25;6095087;23;20032;-72
2022/09/26 01:05:31;;;;;;;4.63;1.92;;;;;;;16.59;61.85;100836.91;6070973;23;20013;-73
2022/09/26 01:07:58;;;;;;;4.05;2.00;;;;;;;16.50;61.99;100822.97;6099964;23;20330;-72
2022/09/26 01:10:23;;;;;;;3.90;2.00;;;;;;;16.45;61.92;100820.41;6088943;23;20010;-73
2022/09/26 01:12:50;;;;;;;5.40;2.03;;;;;;;16.53;61.70;100812.38;6098403;23;20472;-73
2022/09/26 01:15:15;;;;;;;4.68;1.90;;;;;;;16.63;61.54;100801.78;6094139;23;20006;-72
2022/09/26 01:17:43;;;;;;;6.30;2.20;;;;;;;16.66;61.83;100787.69;6100219;23;20414;-72
2022/09/26 01:20:11;;;;;;;7.03;2.50;;;;;;;16.62;61.76;100781.63;6100252;23;20017;-73
2022/09/26 01:23:10;;;;;;;6.47;2.08;;;;;;;16.72;61.15;100769.19;6088078;23;20407;-73
2022/09/26 01:26:00;;;;;;;5.38;2.17;;;;;;;16.67;61.27;100765.75;6072438;23;20381;-73
2022/09/26 01:28:51;;;;;;;4.60;2.00;;;;;;;16.62;61.39;100765.81;6089363;23;20437;-72
2022/09/26 01:31:34;;;;;;;4.85;1.90;;;;;;;16.65;61.22;100754.34;6099690;23;20085;-72
2022/09/26 01:34:23;;;;;;;4.57;1.80;;;;;;;16.67;60.92;100744.69;6092139;23;20012;-73
2022/09/26 01:37:14;;;;;;;6.85;2.08;;;;;;;16.64;61.16;100747.38;6099817;23;20048;-73
2022/09/26 01:39:54;;;;;;;6.13;2.10;;;;;;;16.51;61.06;100744.00;6061504;23;20348;-73
2022/09/26 01:42:25;;;;;;;4.93;1.70;;;;;;;16.67;61.05;100731.53;6101065;23;20427;-74
2022/09/26 01:45:00;;;;;;;5.78;1.90;;;;;;;16.65;60.89;100740.38;6094827;23;20022;-73
2022/09/26 01:47:43;;;;;;;4.93;2.00;;;;;;;16.57;61.31;100745.69;6097467;23;20223;-72
2022/09/26 01:50:56;;;;;;;3.78;1.92;;;;;;;16.69;60.81;100748.19;6097715;23;20014;-73
2022/09/26 01:53:30;;;;;;;6.35;2.00;;;;;;;16.65;61.12;100746.47;6069285;23;20017;-73
2022/09/26 01:56:01;;;;;;;5.05;1.95;;;;;;;16.69;60.85;100740.28;6100007;23;20379;-72
2022/09/26 01:58:32;;;;;;;4.40;2.15;;;;;;;16.58;61.19;100727.25;6092062;23;20505;-72
2022/09/26 02:01:02;;;;;;;5.00;1.98;;;;;;;16.67;60.57;100721.00;6098552;23;20033;-72
2022/09/26 02:03:34;;;;;;;5.07;1.90;;;;;;;16.63;60.38;100711.41;6094484;23;20637;-73
2022/09/26 02:06:14;;;;;;;6.07;2.20;;;;;;;16.61;60.19;100700.91;6099286;23;20017;-72
2022/09/26 02:08:44;;;;;;;4.78;2.20;;;;;;;16.61;60.28;100703.53;6089162;23;20076;-73
2022/09/26 02:11:14;;;;;;;4.63;1.90;;;;;;;16.67;59.92;100692.06;6101941;23;20105;-72
2022/09/26 02:14:02;;;;;;;6.88;2.17;;;;;;;16.56;59.93;100676.38;6098565;23;20064;-72
2022/09/26 02:16:31;;;;;;;4.80;2.10;;;;;;;16.59;59.41;100678.09;6091043;23;20345;-73
2022/09/26 02:19:04;;;;;;;4.15;2.05;;;;;;;16.65;59.39;100679.81;6101399;23;20045;-72
2022/09/26 02:21:30;;;;;;;5.77;2.13;;;;;;;16.44;59.72;100678.31;6070719;23;20018;-72
2022/09/26 02:23:55;;;;;;;5.05;2.05;;;;;;;16.46;59.53;100666.03;6099346;23;20296;-72
2022/09/26 02:26:22;;;;;;;6.50;2.00;;;;;;;16.74;58.51;100664.75;6092392;23;20010;-72
2022/09/26 02:28:47;;;;;;;3.95;1.95;;;;;;;16.69;58.62;100665.72;6097238;23;20006;-73
2022/09/26 02:31:19;;;;;;;6.13;2.20;;;;;;;16.75;58.24;100655.97;6099655;23;20323;-72
2022/09/26 02:33:47;;;;;;;5.00;2.20;;;;;;;16.52;58.70;100653.66;6094584;23;20084;-73
2022/09/26 02:36:14;;;;;;;4.97;2.17;;;;;;;16.53;58.44;100646.59;6100888;23;20010;-72
2022/09/26 02:38:39;;;;;;;7.50;2.17;;;;;;;16.58;57.86;100643.03;6091351;23;20034;-73
2022/09/26 02:41:29;;;;;;;4.47;2.15;;;;;;;16.71;57.22;100643.72;6098040;23;20045;-72
2022/09/26 02:44:19;;;;;;;3.92;2.20;;;;;;;16.50;57.62;100633.50;6097426;23;20435;-72
2022/09/26 02:47:13;;;;;;;6.07;2.10;;;;;;;16.63;57.23;100632.47;6069942;23;20014;-73
2022/09/26 02:49:57;;;;;;;5.60;2.30;;;;;;;16.67;56.48;100620.97;6096923;23;20033;-71
2022/09/26 02:52:43;;;;;;;4.13;2.40;;;;;;;16.68;56.05;100613.97;6089922;23;20024;-72
2022/09/26 02:55:18;;;;;;;5.25;2.30;;;;;;;16.66;56.23;100598.19;6099409;23;20021;-71
2022/09/26 02:58:04;;;;;;;5.40;2.50;;;;;;;16.53;56.37;100596.59;6093410;23;20014;-74
2022/09/26 03:00:43;;;;;;;7.93;2.42;;;;;;;16.73;55.73;100591.94;6097822;23;20415;-73
2022/09/26 03:03:22;;;;;;;6.75;2.20;;;;;;;16.47;55.91;100592.28;6097326;23;20014;-75
2022/09/26 03:05:52;;;;;;;7.55;2.65;;;;;;;16.58;55.79;100584.25;6101165;23;20433;-73
2022/09/26 03:08:32;;;;;;;5.90;2.50;;;;;;;16.56;55.35;100565.84;6096213;23;20012;-73
2022/09/26 03:11:02;;;;;;;7.85;2.50;;;;;;;16.59;55.40;100565.81;6104528;23;20002;-73
2022/09/26 03:13:32;;;;;;;4.78;2.25;;;;;;;16.62;55.27;100568.41;6099878;23;20327;-72
2022/09/26 03:15:58;;;;;;;7.47;2.60;;;;;;;16.72;55.17;100558.59;6094652;23;20445;-72
2022/09/26 03:18:30;;;;;;;6.65;2.60;;;;;;;16.47;55.54;100550.19;6100292;23;20006;-73
2022/09/26 03:20:55;;;;;;;12.05;2.40;;;;;;;16.48;55.43;100544.03;6096111;23;20339;-72
2022/09/26 03:23:25;;;;;;;10.95;2.83;;;;;;;16.34;55.43;100537.28;6097550;23;20006;-73
2022/09/26 03:26:12;;;;;;;10.60;2.67;;;;;;;16.36;55.19;100538.97;6100680;23;20089;-73
2022/09/26 03:28:38;;;;;;;4.50;2.40;;;;;;;16.46;54.96;100527.44;6091192;23;20494;-73
2022/09/26 03:31:04;;;;;;;5.18;2.33;;;;;;;16.47;54.72;100529.13;6100753;23;20434;-73
2022/09/26 03:33:30;;;;;;;5.18;2.20;;;;;;;16.58;54.60;100518.47;6093214;23;20687;-74
2022/09/26 03:35:58;;;;;;;6.55;2.30;;;;;;;16.58;54.63;100513.19;6102690;23;20081;-74
2022/09/26 03:38:23;;;;;;;5.35;2.20;;;;;;;16.63;54.64;100503.50;6093840;23;20010;-73
2022/09/26 03:40:49;;;;;;;5.18;2.20;;;;;;;16.55;54.72;100493.06;6102056;23;20085;-74
2022/09/26 03:43:14;;;;;;;6.57;2.10;;;;;;;16.49;54.85;100480.00;6097430;23;20025;-72
2022/09/26 03:45:39;;;;;;;6.10;2.28;;;;;;;16.42;55.36;100482.75;6099570;23;20014;-73
2022/09/26 03:48:05;;;;;;;3.72;1.80;;;;;;;16.56;55.41;100479.00;6100483;23;20006;-72
2022/09/26 03:50:32;;;;;;;5.43;2.00;;;;;;;16.48;55.37;100469.50;6093281;23;20342;-73
2022/09/26 03:52:58;;;;;;;5.32;1.98;;;;;;;16.16;56.86;100470.06;6100445;23;20010;-72
2022/09/26 03:55:24;;;;;;;5.95;2.20;;;;;;;16.11;57.57;100466.59;6099167;23;20338;-73
2022/09/26 03:57:49;;;;;;;6.05;2.42;;;;;;;16.24;56.79;100457.63;6096655;23;20086;-73
2022/09/26 04:00:15;;;;;;;6.32;2.30;;;;;;;16.28;56.91;100453.19;6101520;23;20310;-73
2022/09/26 04:02:40;;;;;;;4.90;2.30;;;;;;;15.84;58.61;100454.75;6094145;23;20643;-73
2022/09/26 04:05:05;;;;;;;7.13;2.22;;;;;;;16.05;57.93;100446.53;6100776;23;20010;-73
2022/09/26 04:07:31;;;;;;;7.72;2.22;;;;;;;15.78;58.45;100434.69;6099180;23;20011;-73
2022/09/26 04:09:56;;;;;;;6.00;2.22;;;;;;;16.05;58.00;100428.13;6096141;23;20081;-73
2022/09/26 04:12:21;;;;;;;4.97;2.03;;;;;;;16.08;58.30;100422.81;6098537;23;20017;-72
2022/09/26 04:14:47;;;;;;;6.10;2.10;;;;;;;15.84;59.01;100410.06;6096793;23;20102;-73
2022/09/26 04:17:12;;;;;;;3.92;2.10;;;;;;;15.67;59.83;100404.22;6103840;23;20496;-73
2022/09/26 04:19:39;;;;;;;6.30;2.30;;;;;;;15.71;59.14;100400.63;6100191;23;20056;-72
2022/09/26 04:22:07;;;;;;;5.07;2.50;;;;;;;15.53;60.12;100390.38;6094582;23;20427;-74
2022/09/26 04:24:32;;;;;;;5.80;2.25;;;;;;;15.69;59.53;100392.75;6095264;23;20002;-73
2022/09/26 04:26:58;;;;;;;4.20;2.13;;;;;;;15.64;59.95;100397.22;6096530;23;20036;-72
2022/09/26 04:29:23;;;;;;;4.43;2.40;;;;;;;15.54;59.70;100390.38;6100552;23;20013;-72
2022/09/26 04:31:50;;;;;;;4.70;2.15;;;;;;;15.76;59.17;100383.91;6098208;23;20402;-74
2022/09/26 04:34:15;;;;;;;4.15;2.28;;;;;;;15.95;58.77;100360.81;6094183;23;20017;-73
2022/09/26 04:36:41;;;;;;;4.60;2.20;;;;;;;15.89;58.83;100354.78;6098023;23;20009;-74
2022/09/26 04:39:06;;;;;;;8.18;2.40;;;;;;;15.87;58.75;100353.94;6096052;23;20079;-72
2022/09/26 04:41:32;;;;;;;5.55;2.17;;;;;;;15.74;58.95;100354.13;6098766;23;20342;-73
2022/09/26 04:43:58;;;;;;;8.70;2.20;;;;;;;16.05;57.77;100343.97;6100518;23;20182;-72
2022/09/26 04:46:26;;;;;;;3.95;2.20;;;;;;;15.94;58.68;100345.94;6087711;23;20018;-73
2022/09/26 04:48:54;;;;;;;3.80;2.20;;;;;;;15.91;59.15;100340.75;6075676;23;20006;-73
2022/09/26 04:51:21;;;;;;;5.93;2.30;;;;;;;15.97;58.90;100334.50;6098092;23;20030;-73
2022/09/26 04:53:47;;;;;;;5.18;2.25;;;;;;;15.83;58.94;100329.47;6099622;23;20029;-73
2022/09/26 04:56:15;;;;;;;6.47;2.30;;;;;;;15.97;58.67;100326.63;6099699;23;20081;-73
2022/09/26 04:58:42;;;;;;;7.20;2.30;;;;;;;15.75;59.08;100324.34;6093611;23;20055;-73
2022/09/26 05:01:13;;;;;;;5.10;2.30;;;;;;;15.88;59.03;100322.38;6103710;23;20121;-71
2022/09/26 05:03:39;;;;;;;6.38;2.17;;;;;;;15.99;58.14;100320.41;6094128;23;20006;-71
2022/09/26 05:06:06;;;;;;;6.57;2.40;;;;;;;16.02;58.33;100312.50;6101785;23;20418;-73
2022/09/26 05:08:32;;;;;;;4.63;2.03;;;;;;;16.05;58.64;100301.91;6094517;23;20010;-73
2022/09/26 05:10:58;;;;;;;4.75;2.10;;;;;;;15.93;58.52;100290.72;6101399;23;20067;-73
2022/09/26 05:13:24;;;;;;;7.18;2.30;;;;;;;15.83;58.38;100284.78;6099713;23;20013;-72
2022/09/26 05:15:53;;;;;;;5.38;2.20;;;;;;;16.04;58.72;100279.13;6095255;23;20389;-73
2022/09/26 05:18:20;;;;;;;8.60;2.00;;;;;;;16.08;57.88;100270.31;6091356;23;20010;-74
2022/09/26 05:20:49;;;;;;;8.93;2.30;;;;;;;16.10;58.17;100267.66;6096613;23;20278;-73
2022/09/26 05:26:18;;;;;;;3.05;1.80;;;;;;;16.21;57.78;100260.44;6095217;23;20006;-72
2022/09/26 05:26:18;;;;;;;7.85;2.00;;;;;;;15.96;58.21;100246.88;6099987;23;20045;-74
2022/09/26 05:28:45;;;;;;;5.63;2.03;;;;;;;16.09;58.05;100250.16;6095597;23;20010;-72
2022/09/26 05:31:11;;;;;;;6.20;2.13;;;;;;;15.99;58.71;100238.03;6100486;23;20010;-72
2022/09/26 05:33:37;;;;;;;5.10;2.20;;;;;;;15.97;58.51;100221.47;6082855;23;20012;-71
2022/09/26 05:36:04;;;;;;;4.47;2.20;;;;;;;15.79;58.78;100220.03;6094930;23;20468;-73
2022/09/26 05:38:30;;;;;;;5.72;2.30;;;;;;;15.69;59.20;100215.81;6099910;23;20009;-74
2022/09/26 05:40:55;;;;;;;6.38;2.00;;;;;;;15.95;58.96;100216.22;6108217;23;20407;-73
2022/09/26 14:42:51;;;;;;;15.90;3.42;;;;;;;17.83;68.55;99725.94;6244615;22;20110;-76
2022/09/26 14:45:32;;;;;;;16.85;3.60;;;;;;;17.58;68.02;99739.03;6232956;22;20517;-75
2022/09/26 14:48:19;;;;;;;16.83;3.08;;;;;;;17.60;69.40;99733.72;6244568;22;20007;-76
2022/09/26 14:50:56;;;;;;;17.05;2.60;;;;;;;17.53;67.30;99738.34;6241920;22;20313;-75
2022/09/26 14:53:47;;;;;;;14.52;2.20;;;;;;;17.48;67.71;99734.13;6242310;22;20019;-75
2022/09/26 14:56:17;;;;;;;10.30;1.85;;;;;;;17.54;66.67;99731.28;6240163;22;20071;-75
2022/09/26 14:58:50;;;;;;;8.70;1.95;;;;;;;17.64;66.97;99730.09;6242842;22;20061;-76
2022/09/26 15:01:29;;;;;;;12.40;2.28;;;;;;;18.03;66.03;99725.25;6243336;22;20573;-75
2022/09/26 15:04:09;;;;;;;8.07;1.70;;;;;;;17.60;65.96;99718.81;6244985;22;20534;-76
2022/09/26 15:06:38;;;;;;;12.85;2.17;;;;;;;17.63;65.69;99716.06;6242551;22;20019;-77
2022/09/26 15:09:10;;;;;;;12.82;2.00;;;;;;;17.58;63.87;99709.19;6241808;22;20086;-76
2022/09/26 15:11:43;;;;;;;15.63;2.30;;;;;;;17.54;65.57;99713.72;6241300;22;20431;-76
2022/09/26 15:14:20;;;;;;;9.88;2.10;;;;;;;17.54;65.60;99715.47;6246042;22;20509;-75
2022/09/26 15:16:50;;;;;;;13.73;2.50;;;;;;;17.27;66.61;99706.69;6240063;22;20511;-75
2022/09/26 15:19:24;;;;;;;13.57;2.40;;;;;;;17.53;65.68;99706.72;6249618;22;20038;-77
2022/09/26 15:21:58;;;;;;;12.60;2.08;;;;;;;17.68;65.61;99700.97;6245810;22;20599;-76
2022/09/26 15:24:35;;;;;;;12.30;2.08;;;;;;;17.40;67.09;99697.50;6246950;22;20404;-77
2022/09/26 15:27:30;;;;;;;13.57;2.05;;;;;;;17.38;66.03;99702.81;6244360;22;20311;-77
2022/09/26 15:30:04;;;;;;;9.88;2.00;;;;;;;17.41;66.88;99700.06;6223896;22;20532;-77
2022/09/26 15:32:31;;;;;;;13.60;2.40;;;;;;;17.26;66.92;99710.28;6249919;22;20314;-77
2022/09/26 15:35:00;;;;;;;12.15;1.95;;;;;;;17.26;67.71;99719.00;6238711;22;20443;-76
2022/09/26 15:37:32;;;;;;;12.07;2.30;;;;;;;16.81;67.86;99720.47;6250179;22;20091;-79
2022/09/26 15:40:21;;;;;;;12.48;2.08;;;;;;;17.59;65.91;99706.50;6246936;22;20550;-77
2022/09/26 15:43:01;;;;;;;10.15;2.10;;;;;;;17.75;66.00;99705.09;6241082;22;20032;-77
2022/09/26 15:45:49;;;;;;;14.82;3.30;;;;;;;17.91;67.10;99704.56;6248306;22;20047;-76
2022/09/26 15:48:24;;;;;;;12.13;1.90;;;;;;;17.82;66.22;99701.34;6243995;22;20434;-76
2022/09/26 15:50:51;;;;;;;11.82;2.42;;;;;;;17.40;67.10;99703.63;6244055;22;20338;-76
2022/09/26 15:53:23;;;;;;;12.02;2.03;;;;;;;17.37;67.53;99709.00;6244102;22;20015;-77
2022/09/26 15:55:50;;;;;;;9.90;1.77;;;;;;;17.50;67.61;99701.56;6248929;22;20035;-77
2022/09/26 15:58:22;;;;;;;12.02;1.98;;;;;;;17.25;67.43;99701.50;6250784;22;20363;-77
2022/09/26 16:00:51;;;;;;;8.07;1.75;;;;;;;17.16;68.40;99700.91;6239951;22;20077;-77
2022/09/26 16:03:33;;;;;;;7.97;1.85;;;;;;;17.42;67.14;99709.72;6248476;22;20475;-77
2022/09/26 16:05:59;;;;;;;7.28;1.77;;;;;;;17.04;66.46;99710.94;6244827;22;20011;-77
2022/09/26 16:08:28;;;;;;;5.95;1.50;;;;;;;17.56;65.41;99705.75;6249720;22;20004;-77
2022/09/26 16:10:57;;;;;;;11.20;1.95;;;;;;;17.57;64.30;99704.81;6240343;22;20007;-76
2022/09/26 16:13:25;;;;;;;9.23;2.00;;;;;;;17.29;65.78;99699.63;6247747;22;20316;-77
2022/09/26 16:16:02;;;;;;;10.23;1.77;;;;;;;17.35;66.21;99704.69;6248480;22;20049;-77
2022/09/26 16:18:35;;;;;;;7.93;2.08;;;;;;;16.97;66.43;99706.78;6245725;22;20011;-77
2022/09/26 16:21:32;;;;;;;9.27;1.73;;;;;;;16.77;67.12;99701.25;6243659;22;20004;-77
2022/09/26 16:24:26;;;;;;;11.25;1.77;;;;;;;16.40;67.97;99721.66;6225451;22;20417;-77
2022/09/26 16:26:52;;;;;;;10.40;1.67;;;;;;;16.52;67.53;99718.66;6244751;22;20011;-77
2022/09/26 16:29:39;;;;;;;8.70;1.80;;;;;;;16.22;67.07;99728.28;6244043;22;20015;-78
2022/09/26 16:32:51;;;;;;;8.55;1.88;;;;;;;15.88;69.49;99723.06;6247947;22;20004;-77
2022/09/26 16:39:18;;;;;;;6.85;1.40;;;;;;;16.53;67.94;99715.09;6251318;22;20019;-77
2022/09/26 16:42:04;;;;;;;8.65;1.63;;;;;;;15.62;70.74;99725.50;6244334;22;20019;-75
2022/09/26 16:44:48;;;;;;;9.63;1.80;;;;;;;15.50;71.78;99734.50;6248409;22;20016;-77
2022/09/26 16:47:34;;;;;;;11.93;1.65;;;;;;;15.63;71.16;99740.38;6245028;22;20125;-76
2022/09/26 16:50:32;;;;;;;12.60;1.88;;;;;;;15.94;70.81;99748.31;6246282;22;20011;-76
2022/09/26 16:52:59;;;;;;;10.02;1.58;;;;;;;15.69;71.70;99751.59;6223895;22;20401;-77
2022/09/26 16:55:26;;;;;;;10.77;1.70;;;;;;;16.08;70.78;99747.06;6250048;22;20074;-77
2022/09/26 16:58:00;;;;;;;8.45;1.48;;;;;;;15.84;70.91;99742.47;6245958;22;20443;-77
2022/09/26 17:03:19;;;;;;;11.02;1.52;;;;;;;15.53;71.26;99738.88;6248445;22;20094;-77
2022/09/26 17:05:45;;;;;;;8.25;1.17;;;;;;;15.35;71.69;99740.16;6244043;22;20072;-75
2022/09/26 17:08:11;;;;;;;5.50;1.27;;;;;;;15.52;70.37;99730.13;6248513;22;20014;-75
2022/09/26 17:10:37;;;;;;;5.75;1.20;;;;;;;15.18;70.95;99727.44;6246202;22;20011;-76
2022/09/26 17:13:03;;;;;;;4.88;1.00;;;;;;;15.24;71.35;99724.66;6241221;22;20008;-77
2022/09/26 17:15:30;;;;;;;6.78;1.20;;;;;;;15.21;71.75;99729.97;6250458;22;20014;-77
2022/09/26 17:17:57;;;;;;;7.45;1.38;;;;;;;15.35;71.44;99727.03;6243719;22;20015;-77
2022/09/26 17:20:23;;;;;;;7.40;1.10;;;;;;;15.49;70.91;99731.94;6245982;22;20232;-77
2022/09/26 17:22:49;;;;;;;6.38;1.20;;;;;;;15.51;70.91;99738.00;6243145;22;20053;-77
2022/09/26 17:25:14;;;;;;;5.95;1.33;;;;;;;15.48;71.03;99738.97;6247863;22;20011;-75
2022/09/26 17:27:42;;;;;;;13.30;1.50;;;;;;;15.37;71.58;99738.34;6251039;22;20579;-77
2022/09/26 17:30:17;;;;;;;10.50;1.25;;;;;;;15.30;71.53;99740.28;6244451;22;20066;-77
2022/09/26 17:32:48;;;;;;;9.25;1.30;;;;;;;15.41;71.10;99740.88;6245857;22;20004;-75
2022/09/26 17:35:16;;;;;;;6.72;1.10;;;;;;;15.60;70.60;99738.69;6244540;22;20015;-75
2022/09/26 17:37:41;;;;;;;8.27;1.25;;;;;;;15.54;71.14;99748.50;6252367;22;20274;-75
2022/09/26 17:40:18;;;;;;;9.30;1.33;;;;;;;15.78;70.51;99748.75;6250592;22;20003;-76
2022/09/26 17:42:47;;;;;;;7.47;1.30;;;;;;;15.91;70.01;99744.03;6244385;22;20046;-75
2022/09/26 17:45:13;;;;;;;7.50;1.55;;;;;;;15.88;70.24;99746.72;6247778;22;20057;-77
2022/09/26 17:47:38;;;;;;;9.50;1.73;;;;;;;16.01;69.77;99742.00;6247939;22;20011;-77
2022/09/26 17:50:06;;;;;;;9.40;1.90;;;;;;;16.04;69.72;99737.50;6248758;22;20014;-76
2022/09/26 17:52:32;;;;;;;7.22;2.00;;;;;;;15.97;69.85;99740.38;6251068;22;20103;-77
2022/09/26 17:55:04;;;;;;;7.30;2.25;;;;;;;15.79;70.86;99741.72;6239176;22;20007;-77
2022/09/26 17:57:32;;;;;;;7.18;2.35;;;;;;;15.88;70.79;99744.09;6248322;22;20214;-76
2022/09/26 17:59:58;;;;;;;6.70;2.38;;;;;;;15.93;70.42;99736.09;6240856;22;20338;-77
2022/09/26 18:02:36;;;;;;;7.88;2.10;;;;;;;15.88;70.77;99740.59;6248295;22;20344;-76
2022/09/26 18:05:10;;;;;;;7.47;1.70;;;;;;;15.82;71.33;99731.97;6238482;22;20263;-76
2022/09/26 18:07:38;;;;;;;6.27;1.97;;;;;;;15.88;71.31;99733.59;6247593;22;20004;-76
2022/09/26 18:10:15;;;;;;;9.27;1.95;;;;;;;15.83;71.67;99738.09;6236041;22;20034;-76
2022/09/26 18:12:41;;;;;;;12.02;1.77;;;;;;;15.76;71.67;99741.78;6243459;22;20090;-77
2022/09/26 18:15:13;;;;;;;7.95;1.15;;;;;;;15.55;71.15;99747.59;6244500;22;20079;-77
2022/09/26 18:17:39;;;;;;;5.95;1.00;;;;;;;15.18;72.41;99750.19;6242998;22;20514;-77
2022/09/26 18:20:05;;;;;;;4.60;0.68;;;;;;;14.91;71.12;99759.56;6244717;22;20037;-77
2022/09/26 18:22:31;;;;;;;4.25;0.68;;;;;;;14.97;70.47;99755.03;6247870;22;20004;-76
2022/09/26 18:25:03;;;;;;;3.08;0.60;;;;;;;15.15;69.91;99763.38;6241058;22;20050;-77
2022/09/26 18:27:31;;;;;;;4.57;0.70;;;;;;;15.21;71.11;99763.25;6242868;22;20599;-74
2022/09/26 18:29:57;;;;;;;7.32;1.33;;;;;;;15.20;71.11;99772.00;6241645;22;20170;-74
2022/09/26 18:32:26;;;;;;;6.18;1.02;;;;;;;15.37;70.74;99775.09;6238683;22;20251;-77
2022/09/26 18:34:52;;;;;;;8.98;1.20;;;;;;;15.27;71.99;99777.09;6236821;22;20382;-77
2022/09/26 18:37:18;;;;;;;6.50;1.00;;;;;;;15.57;70.96;99779.94;6248381;22;20003;-76
2022/09/26 18:39:43;;;;;;;6.32;1.30;;;;;;;15.11;71.91;99788.00;6245055;22;20010;-74
2022/09/26 18:42:16;;;;;;;8.25;1.20;;;;;;;15.32;71.82;99783.09;6232216;22;20022;-76
2022/09/26 18:44:41;;;;;;;12.35;1.33;;;;;;;15.24;71.68;99782.44;6236136;22;20010;-76
2022/09/26 18:47:16;;;;;;;6.40;1.23;;;;;;;15.12;71.27;99780.09;6240635;22;20012;-75
2022/09/26 18:49:45;;;;;;;9.50;1.20;;;;;;;15.38;70.45;99793.47;6243528;22;20094;-76
2022/09/26 18:52:16;;;;;;;7.82;1.40;;;;;;;15.41;70.49;99790.78;6239062;22;20004;-76
2022/09/26 18:54:44;;;;;;;8.45;1.55;;;;;;;15.42;70.26;99792.50;6248606;22;20003;-76
2022/09/26 18:59:55;;;;;;;12.55;1.42;;;;;;;14.88;71.98;99804.25;6238206;22;20073;-76
2022/09/26 19:02:23;;;;;;;3.55;0.95;;;;;;;14.58;72.17;99805.72;6242269;22;20272;-77
2022/09/26 19:04:50;;;;;;;8.98;1.10;;;;;;;14.98;70.45;99809.25;6242049;22;20008;-76
2022/09/26 19:07:16;;;;;;;3.47;0.63;;;;;;;14.83;70.31;99806.94;6246260;22;20014;-75
2022/09/26 19:09:41;;;;;;;5.28;1.10;;;;;;;14.61;69.96;99817.03;6243669;22;20015;-77
2022/09/26 19:12:11;;;;;;;6.25;1.35;;;;;;;14.70;70.08;99809.88;6239268;22;20431;-74
2022/09/26 19:14:37;;;;;;;6.90;1.50;;;;;;;14.70;69.92;99817.75;6244714;22;20018;-74
2022/09/26 19:17:02;;;;;;;6.03;1.17;;;;;;;14.64;69.93;99825.72;6241822;22;20398;-76
2022/09/26 19:19:29;;;;;;;7.63;1.10;;;;;;;14.86;70.05;99822.63;6243053;22;20045;-76
2022/09/26 19:22:09;;;;;;;5.75;1.13;;;;;;;14.78;70.90;99829.78;6245741;22;20007;-76
2022/09/26 19:24:40;;;;;;;4.32;0.68;;;;;;;14.18;72.95;99831.78;6246409;22;20004;-76
2022/09/26 19:27:11;;;;;;;4.65;0.88;;;;;;;14.72;70.98;99829.91;6247664;22;20008;-76
2022/09/26 19:29:47;;;;;;;8.63;1.30;;;;;;;14.58;71.72;99832.81;6239849;22;20027;-75
2022/09/26 19:32:17;;;;;;;5.43;0.73;;;;;;;14.50;71.00;99831.25;6242947;22;20003;-75
2022/09/26 19:34:49;;;;;;;7.47;0.80;;;;;;;14.45;70.46;99833.09;6239454;22;20156;-75
2022/09/26 19:37:14;;;;;;;6.70;0.80;;;;;;;14.53;69.75;99839.91;6247170;22;20065;-75
2022/09/26 19:39:40;;;;;;;4.95;0.70;;;;;;;14.35;70.08;99837.59;6242794;22;20003;-75
2022/09/26 19:42:05;;;;;;;10.07;1.17;;;;;;;14.46;70.54;99840.03;6239759;22;20011;-75
2022/09/26 19:44:31;;;;;;;4.80;0.80;;;;;;;14.65;69.95;99838.78;6241424;22;20424;-75
2022/09/26 19:46:58;;;;;;;5.15;0.80;;;;;;;14.48;70.02;99841.75;6241015;22;20019;-75
2022/09/26 19:49:27;;;;;;;6.55;0.93;;;;;;;14.70;69.65;99838.72;6243126;22;20061;-75
2022/09/26 19:51:52;;;;;;;4.80;0.70;;;;;;;14.60;69.40;99841.53;6246976;22;19999;-75
2022/09/26 19:54:18;;;;;;;5.68;1.05;;;;;;;14.61;69.68;99842.38;6236923;22;20364;-75
2022/09/26 19:56:44;;;;;;;4.80;0.60;;;;;;;14.46;69.67;99845.28;6245872;22;20536;-75
2022/09/26 19:59:11;;;;;;;4.53;0.70;;;;;;;14.63;69.57;99837.13;6239520;22;20016;-74
2022/09/26 20:01:37;;;;;;;4.70;0.63;;;;;;;14.49;69.97;99845.25;6244993;22;20158;-75
2022/09/26 20:04:03;;;;;;;7.55;1.10;;;;;;;14.36;70.01;99849.81;6234388;22;19999;-75
2022/09/26 20:06:28;;;;;;;9.68;1.27;;;;;;;14.15;71.28;99856.28;6247519;22;20015;-75
2022/09/26 20:08:58;;;;;;;8.73;1.00;;;;;;;14.07;72.04;99862.56;6244481;22;20004;-75
2022/09/26 20:11:23;;;;;;;7.40;1.02;;;;;;;14.51;70.87;99853.97;6243341;22;20316;-75
2022/09/26 20:16:37;;;;;;;6.55;1.00;;;;;;;14.49;71.66;99847.88;6242787;22;20084;-75
2022/09/26 20:19:04;;;;;;;6.55;0.85;;;;;;;14.66;71.25;99847.53;6245724;22;20040;-75
2022/09/26 20:21:31;;;;;;;5.00;1.08;;;;;;;14.70;70.75;99836.94;6244426;22;20451;-74
2022/09/26 20:23:59;;;;;;;7.68;0.73;;;;;;;14.71;70.89;99838.69;6239866;22;20482;-75
2022/09/26 20:26:28;;;;;;;6.22;0.90;;;;;;;14.60;71.66;99848.53;6246408;22;20061;-75
2022/09/26 20:28:53;;;;;;;5.07;0.77;;;;;;;14.75;71.00;99843.00;6238033;22;20510;-74
2022/09/26 20:31:27;;;;;;;5.43;0.80;;;;;;;14.62;71.58;99841.50;6244342;22;20041;-75
2022/09/26 20:33:53;;;;;;;9.60;1.03;;;;;;;14.56;71.30;99841.63;6244684;22;20777;-74
2022/09/26 20:36:25;;;;;;;6.93;0.95;;;;;;;14.16;72.30;99839.69;6230039;22;20393;-74
2022/09/26 20:38:52;;;;;;;5.55;0.80;;;;;;;14.33;71.54;99843.78;6246497;22;20078;-74
2022/09/26 20:41:17;;;;;;;6.13;0.88;;;;;;;14.06;69.30;99839.88;6240637;22;20043;-75
2022/09/26 20:43:47;;;;;;;7.07;0.95;;;;;;;14.28;69.57;99840.34;6245898;22;20485;-74
2022/09/26 20:46:13;;;;;;;3.47;0.70;;;;;;;14.29;69.15;99831.59;6235588;22;20370;-74
2022/09/26 20:48:44;;;;;;;5.75;0.60;;;;;;;14.17;69.99;99846.66;6245707;22;20015;-75
2022/09/26 20:51:18;;;;;;;6.40;0.70;;;;;;;14.48;68.78;99846.13;6244833;22;20003;-75
2022/09/26 20:53:43;;;;;;;5.57;0.68;;;;;;;14.07;68.93;99826.75;6243746;22;20120;-75
2022/09/26 20:56:19;;;;;;;4.25;0.90;;;;;;;14.54;68.22;99832.91;6239857;22;19999;-74
2022/09/26 20:58:48;;;;;;;4.30;0.88;;;;;;;14.48;67.32;99830.41;6241931;22;20012;-75